sensor_id;sensor_type;location;lat;lon;timestamp;P1;durP1;ratioP1;P2;durP2;ratioP2
22455;SDS011;11395;53.204;6.502;2022-08-19T00:05:31;2.30;;;2.10;;
22455;SDS011;11395;53.204;6.502;2022-08-19T00:07:58;2.40;;;2.20;;
22455;SDS011;11395;53.204;6.502;2022-08-19T00:10:24;2.43;;;2.23;;
22455;SDS011;11395;53.204;6.502;2022-08-19T00:12:50;2.10;;;2.00;;
22455;SDS011;11395;53.204;6.502;2022-08-19T00:15:18;2.10;;;2.00;;
22455;SDS011;11395;53.204;6.502;2022-08-19T00:17:46;2.10;;;2.00;;
22455;SDS011;11395;53.204;6.502;2022-08-19T00:20:14;1.87;;;1.77;;
22455;SDS011;11395;53.204;6.502;2022-08-19T00:22:44;2.07;;;1.97;;
22455;SDS011;11395;53.204;6.502;2022-08-19T00:25:13;2.20;;;2.10;;
22455;SDS011;11395;53.204;6.502;2022-08-19T00:27:39;2.63;;;2.20;;
22455;SDS011;11395;53.204;6.502;2022-08-19T00:30:06;2.20;;;2.00;;
22455;SDS011;11395;53.204;6.502;2022-08-19T00:32:33;1.70;;;1.60;;
22455;SDS011;11395;53.204;6.502;2022-08-19T00:35:00;2.43;;;2.10;;
22455;SDS011;11395;53.204;6.502;2022-08-19T00:37:27;1.87;;;1.77;;
22455;SDS011;11395;53.204;6.502;2022-08-19T00:39:53;2.13;;;1.93;;
22455;SDS011;11395;53.204;6.502;2022-08-19T00:42:21;1.77;;;1.67;;
22455;SDS011;11395;53.204;6.502;2022-08-19T00:44:48;2.17;;;2.00;;
22455;SDS011;11395;53.204;6.502;2022-08-19T00:47:16;2.33;;;2.13;;
22455;SDS011;11395;53.204;6.502;2022-08-19T00:49:47;1.90;;;1.80;;
22455;SDS011;11395;53.204;6.502;2022-08-19T00:52:30;2.23;;;2.10;;
22455;SDS011;11395;53.204;6.502;2022-08-19T00:55:00;2.10;;;2.00;;
22455;SDS011;11395;53.204;6.502;2022-08-19T00:57:30;1.90;;;1.80;;
22455;SDS011;11395;53.204;6.502;2022-08-19T01:05:31;2.10;;;2.00;;
22455;SDS011;11395;53.204;6.502;2022-08-19T01:07:58;2.17;;;2.00;;
22455;SDS011;11395;53.204;6.502;2022-08-19T01:10:29;2.10;;;2.00;;
22455;SDS011;11395;53.204;6.502;2022-08-19T01:13:01;2.10;;;2.00;;
22455;SDS011;11395;53.204;6.502;2022-08-19T01:15:31;2.13;;;1.93;;
22455;SDS011;11395;53.204;6.502;2022-08-19T01:18:00;2.17;;;2.07;;
22455;SDS011;11395;53.204;6.502;2022-08-19T01:20:30;2.40;;;1.67;;
22455;SDS011;11395;53.204;6.502;2022-08-19T01:22:57;2.00;;;1.90;;
22455;SDS011;11395;53.204;6.502;2022-08-19T01:25:26;1.90;;;1.80;;
22455;SDS011;11395;53.204;6.502;2022-08-19T01:27:56;1.97;;;1.87;;
22455;SDS011;11395;53.204;6.502;2022-08-19T01:30:25;2.57;;;2.10;;
22455;SDS011;11395;53.204;6.502;2022-08-19T01:32:53;2.00;;;1.90;;
22455;SDS011;11395;53.204;6.502;2022-08-19T01:35:20;2.10;;;2.00;;
22455;SDS011;11395;53.204;6.502;2022-08-19T01:37:51;2.00;;;1.90;;
22455;SDS011;11395;53.204;6.502;2022-08-19T01:40:29;1.80;;;1.70;;
22455;SDS011;11395;53.204;6.502;2022-08-19T01:42:58;1.97;;;1.87;;
22455;SDS011;11395;53.204;6.502;2022-08-19T01:45:26;2.00;;;1.80;;
22455;SDS011;11395;53.204;6.502;2022-08-19T01:47:55;2.23;;;2.13;;
22455;SDS011;11395;53.204;6.502;2022-08-19T01:50:22;1.83;;;1.73;;
22455;SDS011;11395;53.204;6.502;2022-08-19T01:52:49;2.17;;;1.97;;
22455;SDS011;11395;53.204;6.502;2022-08-19T01:55:18;2.23;;;2.13;;
22455;SDS011;11395;53.204;6.502;2022-08-19T01:57:48;2.13;;;2.00;;
22455;SDS011;11395;53.204;6.502;2022-08-19T02:00:18;2.33;;;2.20;;
22455;SDS011;11395;53.204;6.502;2022-08-19T02:02:45;2.03;;;1.93;;
22455;SDS011;11395;53.204;6.502;2022-08-19T02:05:11;2.13;;;1.93;;
22455;SDS011;11395;53.204;6.502;2022-08-19T02:07:38;2.07;;;1.97;;
22455;SDS011;11395;53.204;6.502;2022-08-19T02:10:07;2.03;;;1.93;;
22455;SDS011;11395;53.204;6.502;2022-08-19T02:12:35;2.40;;;2.20;;
22455;SDS011;11395;53.204;6.502;2022-08-19T02:15:02;2.33;;;2.17;;
22455;SDS011;11395;53.204;6.502;2022-08-19T02:17:29;2.07;;;1.97;;
22455;SDS011;11395;53.204;6.502;2022-08-19T02:19:56;1.63;;;1.53;;
22455;SDS011;11395;53.204;6.502;2022-08-19T02:22:23;3.27;;;2.97;;
22455;SDS011;11395;53.204;6.502;2022-08-19T02:24:54;2.10;;;2.00;;
22455;SDS011;11395;53.204;6.502;2022-08-19T02:27:21;1.80;;;1.70;;
22455;SDS011;11395;53.204;6.502;2022-08-19T02:29:48;2.20;;;2.10;;
22455;SDS011;11395;53.204;6.502;2022-08-19T02:32:16;2.00;;;1.90;;
22455;SDS011;11395;53.204;6.502;2022-08-19T02:34:45;2.00;;;1.90;;
22455;SDS011;11395;53.204;6.502;2022-08-19T02:37:12;1.93;;;1.73;;
22455;SDS011;11395;53.204;6.502;2022-08-19T02:40:17;1.80;;;1.70;;
22455;SDS011;11395;53.204;6.502;2022-08-19T02:42:43;1.90;;;1.80;;
22455;SDS011;11395;53.204;6.502;2022-08-19T02:45:11;2.10;;;2.00;;
22455;SDS011;11395;53.204;6.502;2022-08-19T02:47:38;2.20;;;2.00;;
22455;SDS011;11395;53.204;6.502;2022-08-19T02:50:05;1.80;;;1.70;;
22455;SDS011;11395;53.204;6.502;2022-08-19T02:52:32;1.93;;;1.83;;
22455;SDS011;11395;53.204;6.502;2022-08-19T02:54:59;2.10;;;2.00;;
22455;SDS011;11395;53.204;6.502;2022-08-19T02:57:26;2.10;;;2.00;;
22455;SDS011;11395;53.204;6.502;2022-08-19T02:59:53;2.27;;;2.10;;
22455;SDS011;11395;53.204;6.502;2022-08-19T03:02:19;1.90;;;1.80;;
22455;SDS011;11395;53.204;6.502;2022-08-19T03:04:46;2.20;;;2.00;;
22455;SDS011;11395;53.204;6.502;2022-08-19T03:07:16;2.00;;;1.90;;
22455;SDS011;11395;53.204;6.502;2022-08-19T03:09:42;1.90;;;1.80;;
22455;SDS011;11395;53.204;6.502;2022-08-19T03:12:09;1.97;;;1.87;;
22455;SDS011;11395;53.204;6.502;2022-08-19T03:14:35;2.20;;;2.10;;
22455;SDS011;11395;53.204;6.502;2022-08-19T03:17:03;1.87;;;1.77;;
22455;SDS011;11395;53.204;6.502;2022-08-19T03:19:30;1.93;;;1.83;;
22455;SDS011;11395;53.204;6.502;2022-08-19T03:21:57;1.97;;;1.87;;
22455;SDS011;11395;53.204;6.502;2022-08-19T03:24:24;2.23;;;1.80;;
22455;SDS011;11395;53.204;6.502;2022-08-19T03:26:51;2.00;;;1.90;;
22455;SDS011;11395;53.204;6.502;2022-08-19T03:29:23;1.93;;;1.83;;
22455;SDS011;11395;53.204;6.502;2022-08-19T03:31:53;1.87;;;1.77;;
22455;SDS011;11395;53.204;6.502;2022-08-19T03:34:24;2.10;;;1.90;;
22455;SDS011;11395;53.204;6.502;2022-08-19T03:36:52;2.03;;;1.90;;
22455;SDS011;11395;53.204;6.502;2022-08-19T03:39:20;1.77;;;1.67;;
22455;SDS011;11395;53.204;6.502;2022-08-19T03:41:48;1.67;;;1.57;;
22455;SDS011;11395;53.204;6.502;2022-08-19T03:44:16;1.97;;;1.87;;
22455;SDS011;11395;53.204;6.502;2022-08-19T03:46:46;1.80;;;1.70;;
22455;SDS011;11395;53.204;6.502;2022-08-19T03:49:15;2.20;;;1.87;;
22455;SDS011;11395;53.204;6.502;2022-08-19T03:51:42;2.00;;;1.90;;
22455;SDS011;11395;53.204;6.502;2022-08-19T03:54:09;1.80;;;1.70;;
22455;SDS011;11395;53.204;6.502;2022-08-19T03:56:39;1.80;;;1.70;;
22455;SDS011;11395;53.204;6.502;2022-08-19T03:59:10;1.73;;;1.63;;
22455;SDS011;11395;53.204;6.502;2022-08-19T04:01:39;2.00;;;1.90;;
22455;SDS011;11395;53.204;6.502;2022-08-19T04:04:05;1.93;;;1.83;;
22455;SDS011;11395;53.204;6.502;2022-08-19T04:06:32;1.63;;;1.53;;
22455;SDS011;11395;53.204;6.502;2022-08-19T04:09:01;2.10;;;2.00;;
22455;SDS011;11395;53.204;6.502;2022-08-19T04:11:36;2.00;;;1.80;;
22455;SDS011;11395;53.204;6.502;2022-08-19T04:14:09;2.07;;;1.97;;
22455;SDS011;11395;53.204;6.502;2022-08-19T04:16:37;2.37;;;1.87;;
22455;SDS011;11395;53.204;6.502;2022-08-19T04:19:04;2.00;;;1.90;;
22455;SDS011;11395;53.204;6.502;2022-08-19T04:21:31;2.10;;;2.00;;
22455;SDS011;11395;53.204;6.502;2022-08-19T04:23:57;2.30;;;2.10;;
22455;SDS011;11395;53.204;6.502;2022-08-19T04:26:24;2.30;;;2.20;;
22455;SDS011;11395;53.204;6.502;2022-08-19T04:28:54;1.90;;;1.80;;
22455;SDS011;11395;53.204;6.502;2022-08-19T04:31:21;1.67;;;1.57;;
22455;SDS011;11395;53.204;6.502;2022-08-19T04:33:52;1.70;;;1.60;;
22455;SDS011;11395;53.204;6.502;2022-08-19T04:36:20;2.00;;;1.90;;
22455;SDS011;11395;53.204;6.502;2022-08-19T04:38:56;1.70;;;1.60;;
22455;SDS011;11395;53.204;6.502;2022-08-19T04:41:25;1.93;;;1.80;;
22455;SDS011;11395;53.204;6.502;2022-08-19T04:44:10;1.80;;;1.70;;
22455;SDS011;11395;53.204;6.502;2022-08-19T04:46:37;1.87;;;1.77;;
22455;SDS011;11395;53.204;6.502;2022-08-19T04:49:04;2.07;;;1.97;;
22455;SDS011;11395;53.204;6.502;2022-08-19T04:51:32;1.90;;;1.80;;
22455;SDS011;11395;53.204;6.502;2022-08-19T04:53:59;2.10;;;1.90;;
22455;SDS011;11395;53.204;6.502;2022-08-19T04:56:26;2.00;;;1.90;;
22455;SDS011;11395;53.204;6.502;2022-08-19T04:58:53;1.83;;;1.73;;
22455;SDS011;11395;53.204;6.502;2022-08-19T05:01:25;1.93;;;1.80;;
22455;SDS011;11395;53.204;6.502;2022-08-19T05:03:53;1.90;;;1.80;;
22455;SDS011;11395;53.204;6.502;2022-08-19T05:06:20;1.77;;;1.67;;
22455;SDS011;11395;53.204;6.502;2022-08-19T05:08:48;1.90;;;1.80;;
22455;SDS011;11395;53.204;6.502;2022-08-19T05:11:18;2.17;;;2.07;;
22455;SDS011;11395;53.204;6.502;2022-08-19T05:13:47;2.17;;;2.07;;
22455;SDS011;11395;53.204;6.502;2022-08-19T05:16:14;1.67;;;1.57;;
22455;SDS011;11395;53.204;6.502;2022-08-19T05:18:42;1.90;;;1.80;;
22455;SDS011;11395;53.204;6.502;2022-08-19T05:21:28;1.70;;;1.60;;
22455;SDS011;11395;53.204;6.502;2022-08-19T05:24:13;2.00;;;1.90;;
22455;SDS011;11395;53.204;6.502;2022-08-19T05:26:40;1.93;;;1.80;;
22455;SDS011;11395;53.204;6.502;2022-08-19T05:29:09;2.10;;;2.00;;
22455;SDS011;11395;53.204;6.502;2022-08-19T05:31:35;1.50;;;1.50;;
22455;SDS011;11395;53.204;6.502;2022-08-19T05:34:04;1.70;;;1.60;;
22455;SDS011;11395;53.204;6.502;2022-08-19T05:36:33;1.87;;;1.77;;
22455;SDS011;11395;53.204;6.502;2022-08-19T05:39:03;1.87;;;1.77;;
22455;SDS011;11395;53.204;6.502;2022-08-19T05:41:30;1.73;;;1.60;;
22455;SDS011;11395;53.204;6.502;2022-08-19T05:43:57;1.70;;;1.60;;
22455;SDS011;11395;53.204;6.502;2022-08-19T05:46:23;1.80;;;1.70;;
22455;SDS011;11395;53.204;6.502;2022-08-19T05:48:50;1.77;;;1.67;;
22455;SDS011;11395;53.204;6.502;2022-08-19T05:51:16;1.83;;;1.73;;
22455;SDS011;11395;53.204;6.502;2022-08-19T05:53:42;1.47;;;1.40;;
22455;SDS011;11395;53.204;6.502;2022-08-19T05:56:12;1.77;;;1.67;;
22455;SDS011;11395;53.204;6.502;2022-08-19T05:58:42;1.67;;;1.57;;
22455;SDS011;11395;53.204;6.502;2022-08-19T06:01:15;1.80;;;1.70;;
22455;SDS011;11395;53.204;6.502;2022-08-19T06:03:43;1.70;;;1.60;;
22455;SDS011;11395;53.204;6.502;2022-08-19T06:06:11;1.60;;;1.50;;
22455;SDS011;11395;53.204;6.502;2022-08-19T06:08:39;1.60;;;1.50;;
22455;SDS011;11395;53.204;6.502;2022-08-19T06:11:40;1.60;;;1.50;;
22455;SDS011;11395;53.204;6.502;2022-08-19T06:14:02;2.00;;;1.90;;
22455;SDS011;11395;53.204;6.502;2022-08-19T06:16:30;2.17;;;1.60;;
22455;SDS011;11395;53.204;6.502;2022-08-19T06:19:01;1.93;;;1.83;;
22455;SDS011;11395;53.204;6.502;2022-08-19T06:21:29;1.90;;;1.80;;
22455;SDS011;11395;53.204;6.502;2022-08-19T06:23:56;1.70;;;1.60;;
22455;SDS011;11395;53.204;6.502;2022-08-19T06:26:23;1.97;;;1.87;;
22455;SDS011;11395;53.204;6.502;2022-08-19T06:28:50;2.37;;;1.90;;
22455;SDS011;11395;53.204;6.502;2022-08-19T06:31:17;2.60;;;2.00;;
22455;SDS011;11395;53.204;6.502;2022-08-19T06:33:46;2.20;;;2.00;;
22455;SDS011;11395;53.204;6.502;2022-08-19T06:36:33;2.17;;;1.70;;
22455;SDS011;11395;53.204;6.502;2022-08-19T06:39:05;1.73;;;1.63;;
22455;SDS011;11395;53.204;6.502;2022-08-19T06:41:36;2.10;;;2.00;;
22455;SDS011;11395;53.204;6.502;2022-08-19T06:44:04;1.80;;;1.70;;
22455;SDS011;11395;53.204;6.502;2022-08-19T06:46:31;2.20;;;2.10;;
22455;SDS011;11395;53.204;6.502;2022-08-19T06:48:57;1.90;;;1.70;;
22455;SDS011;11395;53.204;6.502;2022-08-19T06:51:24;2.00;;;1.90;;
22455;SDS011;11395;53.204;6.502;2022-08-19T06:53:53;2.23;;;2.03;;
22455;SDS011;11395;53.204;6.502;2022-08-19T06:56:21;4.00;;;2.77;;
22455;SDS011;11395;53.204;6.502;2022-08-19T06:58:50;3.83;;;2.30;;
22455;SDS011;11395;53.204;6.502;2022-08-19T07:01:18;2.30;;;2.10;;
22455;SDS011;11395;53.204;6.502;2022-08-19T07:03:45;2.30;;;2.10;;
22455;SDS011;11395;53.204;6.502;2022-08-19T07:06:13;2.17;;;2.00;;
22455;SDS011;11395;53.204;6.502;2022-08-19T07:08:44;2.43;;;2.00;;
22455;SDS011;11395;53.204;6.502;2022-08-19T07:11:12;1.67;;;1.57;;
22455;SDS011;11395;53.204;6.502;2022-08-19T07:13:41;1.90;;;1.80;;
22455;SDS011;11395;53.204;6.502;2022-08-19T07:16:09;2.10;;;2.00;;
22455;SDS011;11395;53.204;6.502;2022-08-19T07:18:38;3.40;;;1.93;;
22455;SDS011;11395;53.204;6.502;2022-08-19T07:21:09;2.80;;;2.07;;
22455;SDS011;11395;53.204;6.502;2022-08-19T07:23:41;1.70;;;1.60;;
22455;SDS011;11395;53.204;6.502;2022-08-19T07:26:11;3.90;;;2.00;;
22455;SDS011;11395;53.204;6.502;2022-08-19T07:28:57;2.50;;;1.90;;
22455;SDS011;11395;53.204;6.502;2022-08-19T07:31:26;2.63;;;1.60;;
22455;SDS011;11395;53.204;6.502;2022-08-19T07:33:53;3.27;;;1.83;;
22455;SDS011;11395;53.204;6.502;2022-08-19T07:36:22;2.27;;;1.87;;
22455;SDS011;11395;53.204;6.502;2022-08-19T07:38:54;3.10;;;1.80;;
22455;SDS011;11395;53.204;6.502;2022-08-19T07:41:22;2.80;;;2.10;;
22455;SDS011;11395;53.204;6.502;2022-08-19T07:43:49;4.70;;;1.97;;
22455;SDS011;11395;53.204;6.502;2022-08-19T07:46:17;3.13;;;2.00;;
22455;SDS011;11395;53.204;6.502;2022-08-19T07:48:46;2.40;;;2.17;;
22455;SDS011;11395;53.204;6.502;2022-08-19T07:51:15;4.60;;;1.80;;
22455;SDS011;11395;53.204;6.502;2022-08-19T07:53:44;3.20;;;1.70;;
22455;SDS011;11395;53.204;6.502;2022-08-19T07:56:14;2.93;;;2.20;;
22455;SDS011;11395;53.204;6.502;2022-08-19T07:58:41;3.47;;;1.87;;
22455;SDS011;11395;53.204;6.502;2022-08-19T08:01:11;2.23;;;2.03;;
22455;SDS011;11395;53.204;6.502;2022-08-19T08:03:51;3.13;;;2.30;;
22455;SDS011;11395;53.204;6.502;2022-08-19T08:06:37;2.70;;;2.50;;
22455;SDS011;11395;53.204;6.502;2022-08-19T08:09:23;1.97;;;1.87;;
22455;SDS011;11395;53.204;6.502;2022-08-19T08:11:59;2.73;;;2.30;;
22455;SDS011;11395;53.204;6.502;2022-08-19T08:14:33;4.30;;;1.77;;
22455;SDS011;11395;53.204;6.502;2022-08-19T08:17:03;5.80;;;2.20;;
22455;SDS011;11395;53.204;6.502;2022-08-19T08:19:30;2.30;;;1.90;;
22455;SDS011;11395;53.204;6.502;2022-08-19T08:21:58;1.93;;;1.83;;
22455;SDS011;11395;53.204;6.502;2022-08-19T08:24:26;1.60;;;1.50;;
22455;SDS011;11395;53.204;6.502;2022-08-19T08:26:54;1.97;;;1.87;;
22455;SDS011;11395;53.204;6.502;2022-08-19T08:29:20;2.00;;;1.90;;
22455;SDS011;11395;53.204;6.502;2022-08-19T08:31:46;2.10;;;1.70;;
22455;SDS011;11395;53.204;6.502;2022-08-19T08:34:13;2.10;;;1.80;;
22455;SDS011;11395;53.204;6.502;2022-08-19T08:36:42;2.50;;;1.90;;
22455;SDS011;11395;53.204;6.502;2022-08-19T08:39:20;3.20;;;1.97;;
22455;SDS011;11395;53.204;6.502;2022-08-19T08:47:10;2.00;;;1.80;;
22455;SDS011;11395;53.204;6.502;2022-08-19T08:49:43;2.03;;;1.87;;
22455;SDS011;11395;53.204;6.502;2022-08-19T08:52:24;1.90;;;1.80;;
22455;SDS011;11395;53.204;6.502;2022-08-19T08:54:53;3.07;;;1.90;;
22455;SDS011;11395;53.204;6.502;2022-08-19T08:57:26;1.97;;;1.80;;
22455;SDS011;11395;53.204;6.502;2022-08-19T08:59:59;1.83;;;1.67;;
22455;SDS011;11395;53.204;6.502;2022-08-19T09:02:31;1.70;;;1.60;;
22455;SDS011;11395;53.204;6.502;2022-08-19T09:04:57;2.23;;;2.00;;
22455;SDS011;11395;53.204;6.502;2022-08-19T09:13:01;3.40;;;1.80;;
22455;SDS011;11395;53.204;6.502;2022-08-19T09:15:46;1.63;;;1.53;;
22455;SDS011;11395;53.204;6.502;2022-08-19T09:18:16;1.93;;;1.83;;
22455;SDS011;11395;53.204;6.502;2022-08-19T09:20:42;2.20;;;2.00;;
22455;SDS011;11395;53.204;6.502;2022-08-19T09:23:09;2.47;;;1.80;;
22455;SDS011;11395;53.204;6.502;2022-08-19T09:25:36;2.40;;;2.00;;
22455;SDS011;11395;53.204;6.502;2022-08-19T09:28:03;2.00;;;1.90;;
22455;SDS011;11395;53.204;6.502;2022-08-19T09:30:30;2.93;;;2.13;;
22455;SDS011;11395;53.204;6.502;2022-08-19T09:32:59;1.80;;;1.70;;
22455;SDS011;11395;53.204;6.502;2022-08-19T09:35:27;2.07;;;1.90;;
22455;SDS011;11395;53.204;6.502;2022-08-19T09:37:55;1.90;;;1.80;;
22455;SDS011;11395;53.204;6.502;2022-08-19T09:40:22;1.93;;;1.83;;
22455;SDS011;11395;53.204;6.502;2022-08-19T09:42:49;2.63;;;1.50;;
22455;SDS011;11395;53.204;6.502;2022-08-19T09:45:16;2.50;;;1.93;;
22455;SDS011;11395;53.204;6.502;2022-08-19T09:47:46;2.23;;;1.70;;
22455;SDS011;11395;53.204;6.502;2022-08-19T09:50:13;1.90;;;1.80;;
22455;SDS011;11395;53.204;6.502;2022-08-19T09:52:39;2.13;;;2.03;;
22455;SDS011;11395;53.204;6.502;2022-08-19T09:55:08;2.13;;;1.90;;
22455;SDS011;11395;53.204;6.502;2022-08-19T09:57:35;1.97;;;1.87;;
22455;SDS011;11395;53.204;6.502;2022-08-19T10:00:03;1.90;;;1.80;;
22455;SDS011;11395;53.204;6.502;2022-08-19T10:02:33;2.33;;;2.07;;
22455;SDS011;11395;53.204;6.502;2022-08-19T10:05:00;2.00;;;1.90;;
22455;SDS011;11395;53.204;6.502;2022-08-19T10:07:44;1.90;;;1.80;;
22455;SDS011;11395;53.204;6.502;2022-08-19T10:10:10;2.27;;;1.70;;
22455;SDS011;11395;53.204;6.502;2022-08-19T10:12:37;1.90;;;1.80;;
22455;SDS011;11395;53.204;6.502;2022-08-19T10:15:04;1.87;;;1.77;;
22455;SDS011;11395;53.204;6.502;2022-08-19T10:17:31;2.07;;;1.97;;
22455;SDS011;11395;53.204;6.502;2022-08-19T10:20:00;2.47;;;1.97;;
22455;SDS011;11395;53.204;6.502;2022-08-19T10:22:29;2.70;;;2.13;;
22455;SDS011;11395;53.204;6.502;2022-08-19T10:24:56;2.10;;;1.90;;
22455;SDS011;11395;53.204;6.502;2022-08-19T10:27:22;2.30;;;2.10;;
22455;SDS011;11395;53.204;6.502;2022-08-19T10:29:49;1.97;;;1.80;;
22455;SDS011;11395;53.204;6.502;2022-08-19T10:32:15;1.73;;;1.63;;
22455;SDS011;11395;53.204;6.502;2022-08-19T10:34:41;2.07;;;1.87;;
22455;SDS011;11395;53.204;6.502;2022-08-19T10:37:08;1.93;;;1.83;;
22455;SDS011;11395;53.204;6.502;2022-08-19T10:39:35;1.97;;;1.87;;
22455;SDS011;11395;53.204;6.502;2022-08-19T10:42:05;3.00;;;2.07;;
22455;SDS011;11395;53.204;6.502;2022-08-19T10:44:32;2.07;;;1.97;;
22455;SDS011;11395;53.204;6.502;2022-08-19T10:47:00;2.87;;;1.90;;
22455;SDS011;11395;53.204;6.502;2022-08-19T10:49:27;2.70;;;2.07;;
22455;SDS011;11395;53.204;6.502;2022-08-19T10:51:53;2.23;;;2.13;;
22455;SDS011;11395;53.204;6.502;2022-08-19T10:54:39;2.20;;;1.80;;
22455;SDS011;11395;53.204;6.502;2022-08-19T10:57:24;2.50;;;1.90;;
22455;SDS011;11395;53.204;6.502;2022-08-19T10:59:57;2.40;;;2.17;;
22455;SDS011;11395;53.204;6.502;2022-08-19T11:02:23;2.53;;;2.30;;
22455;SDS011;11395;53.204;6.502;2022-08-19T11:04:50;2.40;;;2.07;;
22455;SDS011;11395;53.204;6.502;2022-08-19T11:07:17;1.77;;;1.67;;
22455;SDS011;11395;53.204;6.502;2022-08-19T11:09:43;3.00;;;2.23;;
22455;SDS011;11395;53.204;6.502;2022-08-19T11:12:09;2.20;;;2.10;;
22455;SDS011;11395;53.204;6.502;2022-08-19T11:14:36;2.43;;;2.30;;
22455;SDS011;11395;53.204;6.502;2022-08-19T11:17:03;2.50;;;2.33;;
22455;SDS011;11395;53.204;6.502;2022-08-19T11:19:30;4.50;;;2.27;;
22455;SDS011;11395;53.204;6.502;2022-08-19T11:21:57;3.13;;;2.10;;
22455;SDS011;11395;53.204;6.502;2022-08-19T11:24:28;2.40;;;2.07;;
22455;SDS011;11395;53.204;6.502;2022-08-19T11:27:00;2.43;;;2.27;;
22455;SDS011;11395;53.204;6.502;2022-08-19T11:29:30;3.20;;;2.37;;
22455;SDS011;11395;53.204;6.502;2022-08-19T11:31:57;2.40;;;2.20;;
22455;SDS011;11395;53.204;6.502;2022-08-19T11:34:25;2.50;;;2.30;;
22455;SDS011;11395;53.204;6.502;2022-08-19T11:36:54;1.97;;;1.87;;
22455;SDS011;11395;53.204;6.502;2022-08-19T11:39:23;2.67;;;2.47;;
22455;SDS011;11395;53.204;6.502;2022-08-19T11:41:50;2.70;;;2.50;;
22455;SDS011;11395;53.204;6.502;2022-08-19T11:44:17;2.77;;;2.30;;
22455;SDS011;11395;53.204;6.502;2022-08-19T11:46:44;2.30;;;2.20;;
22455;SDS011;11395;53.204;6.502;2022-08-19T11:49:12;2.80;;;2.37;;
22455;SDS011;11395;53.204;6.502;2022-08-19T11:51:40;2.40;;;2.20;;
22455;SDS011;11395;53.204;6.502;2022-08-19T11:54:10;2.60;;;2.00;;
22455;SDS011;11395;53.204;6.502;2022-08-19T11:56:38;2.67;;;2.47;;
22455;SDS011;11395;53.204;6.502;2022-08-19T11:59:05;2.73;;;2.53;;
22455;SDS011;11395;53.204;6.502;2022-08-19T12:01:33;2.47;;;2.27;;
22455;SDS011;11395;53.204;6.502;2022-08-19T12:04:00;2.40;;;2.20;;
22455;SDS011;11395;53.204;6.502;2022-08-19T12:06:30;2.17;;;2.07;;
22455;SDS011;11395;53.204;6.502;2022-08-19T12:08:58;2.30;;;2.20;;
22455;SDS011;11395;53.204;6.502;2022-08-19T12:11:27;2.30;;;2.10;;
22455;SDS011;11395;53.204;6.502;2022-08-19T12:13:53;2.30;;;2.10;;
22455;SDS011;11395;53.204;6.502;2022-08-19T12:16:21;2.40;;;2.20;;
22455;SDS011;11395;53.204;6.502;2022-08-19T12:18:50;2.60;;;2.40;;
22455;SDS011;11395;53.204;6.502;2022-08-19T12:21:18;2.53;;;2.20;;
22455;SDS011;11395;53.204;6.502;2022-08-19T12:23:47;5.03;;;2.60;;
22455;SDS011;11395;53.204;6.502;2022-08-19T12:26:15;2.40;;;2.20;;
22455;SDS011;11395;53.204;6.502;2022-08-19T12:28:42;2.53;;;2.33;;
22455;SDS011;11395;53.204;6.502;2022-08-19T12:31:09;4.17;;;2.50;;
22455;SDS011;11395;53.204;6.502;2022-08-19T12:33:39;4.60;;;2.63;;
22455;SDS011;11395;53.204;6.502;2022-08-19T12:36:08;2.50;;;2.30;;
22455;SDS011;11395;53.204;6.502;2022-08-19T12:38:35;2.57;;;2.37;;
22455;SDS011;11395;53.204;6.502;2022-08-19T12:41:03;4.40;;;2.70;;
22455;SDS011;11395;53.204;6.502;2022-08-19T12:43:33;3.13;;;2.23;;
22455;SDS011;11395;53.204;6.502;2022-08-19T12:46:00;2.70;;;2.50;;
22455;SDS011;11395;53.204;6.502;2022-08-19T12:48:29;3.23;;;2.60;;
22455;SDS011;11395;53.204;6.502;2022-08-19T12:50:56;3.53;;;2.70;;
22455;SDS011;11395;53.204;6.502;2022-08-19T12:53:23;2.53;;;2.30;;
22455;SDS011;11395;53.204;6.502;2022-08-19T12:55:54;2.93;;;2.70;;
22455;SDS011;11395;53.204;6.502;2022-08-19T12:58:22;2.90;;;2.70;;
22455;SDS011;11395;53.204;6.502;2022-08-19T13:00:49;2.50;;;2.30;;
22455;SDS011;11395;53.204;6.502;2022-08-19T13:03:15;2.93;;;2.73;;
22455;SDS011;11395;53.204;6.502;2022-08-19T13:05:41;3.63;;;2.40;;
22455;SDS011;11395;53.204;6.502;2022-08-19T13:08:07;2.60;;;2.40;;
22455;SDS011;11395;53.204;6.502;2022-08-19T13:10:35;3.43;;;3.13;;
22455;SDS011;11395;53.204;6.502;2022-08-19T13:13:03;2.40;;;2.20;;
22455;SDS011;11395;53.204;6.502;2022-08-19T13:15:35;2.50;;;2.30;;
22455;SDS011;11395;53.204;6.502;2022-08-19T13:18:06;2.67;;;2.47;;
22455;SDS011;11395;53.204;6.502;2022-08-19T13:20:34;5.63;;;2.80;;
22455;SDS011;11395;53.204;6.502;2022-08-19T13:23:02;4.27;;;2.57;;
22455;SDS011;11395;53.204;6.502;2022-08-19T13:25:29;2.77;;;2.57;;
22455;SDS011;11395;53.204;6.502;2022-08-19T13:27:55;3.30;;;3.10;;
22455;SDS011;11395;53.204;6.502;2022-08-19T13:30:22;3.40;;;3.10;;
22455;SDS011;11395;53.204;6.502;2022-08-19T13:33:07;3.13;;;2.93;;
22455;SDS011;11395;53.204;6.502;2022-08-19T13:35:45;3.10;;;2.80;;
22455;SDS011;11395;53.204;6.502;2022-08-19T13:38:21;3.67;;;2.80;;
22455;SDS011;11395;53.204;6.502;2022-08-19T13:40:48;2.93;;;2.73;;
22455;SDS011;11395;53.204;6.502;2022-08-19T13:43:17;4.00;;;2.87;;
22455;SDS011;11395;53.204;6.502;2022-08-19T13:45:45;3.10;;;2.80;;
22455;SDS011;11395;53.204;6.502;2022-08-19T13:48:11;4.27;;;3.27;;
22455;SDS011;11395;53.204;6.502;2022-08-19T13:50:38;4.20;;;3.23;;
22455;SDS011;11395;53.204;6.502;2022-08-19T13:53:07;3.60;;;3.10;;
22455;SDS011;11395;53.204;6.502;2022-08-19T13:55:38;4.43;;;3.47;;
22455;SDS011;11395;53.204;6.502;2022-08-19T13:58:05;4.47;;;3.10;;
22455;SDS011;11395;53.204;6.502;2022-08-19T14:00:34;3.40;;;3.07;;
22455;SDS011;11395;53.204;6.502;2022-08-19T14:03:02;4.87;;;3.13;;
22455;SDS011;11395;53.204;6.502;2022-08-19T14:05:29;3.33;;;3.00;;
22455;SDS011;11395;53.204;6.502;2022-08-19T14:07:56;3.83;;;3.10;;
22455;SDS011;11395;53.204;6.502;2022-08-19T14:10:23;4.90;;;3.17;;
22455;SDS011;11395;53.204;6.502;2022-08-19T14:12:52;3.60;;;3.30;;
22455;SDS011;11395;53.204;6.502;2022-08-19T14:15:20;3.97;;;3.57;;
22455;SDS011;11395;53.204;6.502;2022-08-19T14:17:48;4.80;;;3.00;;
22455;SDS011;11395;53.204;6.502;2022-08-19T14:20:15;3.40;;;3.10;;
22455;SDS011;11395;53.204;6.502;2022-08-19T14:22:42;3.73;;;3.40;;
22455;SDS011;11395;53.204;6.502;2022-08-19T14:25:11;6.47;;;2.93;;
22455;SDS011;11395;53.204;6.502;2022-08-19T14:27:40;3.80;;;3.20;;
22455;SDS011;11395;53.204;6.502;2022-08-19T14:30:08;4.37;;;3.20;;
22455;SDS011;11395;53.204;6.502;2022-08-19T14:32:36;3.17;;;2.87;;
22455;SDS011;11395;53.204;6.502;2022-08-19T14:35:03;3.50;;;3.20;;
22455;SDS011;11395;53.204;6.502;2022-08-19T14:37:30;3.33;;;2.93;;
22455;SDS011;11395;53.204;6.502;2022-08-19T14:39:56;3.10;;;2.80;;
22455;SDS011;11395;53.204;6.502;2022-08-19T14:42:22;3.30;;;3.00;;
22455;SDS011;11395;53.204;6.502;2022-08-19T14:44:48;3.20;;;2.90;;
22455;SDS011;11395;53.204;6.502;2022-08-19T14:47:14;3.97;;;3.33;;
22455;SDS011;11395;53.204;6.502;2022-08-19T14:49:40;6.80;;;3.30;;
22455;SDS011;11395;53.204;6.502;2022-08-19T14:52:07;3.80;;;3.17;;
22455;SDS011;11395;53.204;6.502;2022-08-19T14:54:33;4.87;;;2.67;;
22455;SDS011;11395;53.204;6.502;2022-08-19T14:56:59;5.20;;;3.40;;
22455;SDS011;11395;53.204;6.502;2022-08-19T14:59:25;5.20;;;3.43;;
22455;SDS011;11395;53.204;6.502;2022-08-19T15:01:51;4.77;;;3.67;;
22455;SDS011;11395;53.204;6.502;2022-08-19T15:04:17;4.70;;;3.50;;
22455;SDS011;11395;53.204;6.502;2022-08-19T15:06:44;5.60;;;3.80;;
22455;SDS011;11395;53.204;6.502;2022-08-19T15:09:10;11.43;;;7.07;;
22455;SDS011;11395;53.204;6.502;2022-08-19T15:11:36;12.43;;;8.07;;
22455;SDS011;11395;53.204;6.502;2022-08-19T15:14:04;12.23;;;10.73;;
22455;SDS011;11395;53.204;6.502;2022-08-19T15:16:35;14.40;;;9.27;;
22455;SDS011;11395;53.204;6.502;2022-08-19T15:19:03;16.23;;;11.30;;